sensor_id;sensor_type;location;lat;lon;timestamp;P1;durP1;ratioP1;P2;durP2;ratioP2
77872;SDS011;67068;52.116;4.440;2023-04-21T00:00:41;6.30;;;2.30;;
77872;SDS011;67068;52.116;4.440;2023-04-21T00:03:07;6.57;;;2.10;;
77872;SDS011;67068;52.116;4.440;2023-04-21T00:05:33;7.28;;;2.47;;
77872;SDS011;67068;52.116;4.440;2023-04-21T00:07:58;6.13;;;2.30;;
77872;SDS011;67068;52.116;4.440;2023-04-21T00:10:23;6.83;;;2.23;;
77872;SDS011;67068;52.116;4.440;2023-04-21T00:12:49;6.77;;;2.37;;
77872;SDS011;67068;52.116;4.440;2023-04-21T00:15:14;7.30;;;2.50;;
77872;SDS011;67068;52.116;4.440;2023-04-21T00:17:39;6.53;;;2.53;;
77872;SDS011;67068;52.116;4.440;2023-04-21T00:20:05;6.82;;;2.80;;
77872;SDS011;67068;52.116;4.440;2023-04-21T00:22:31;6.55;;;2.22;;
77872;SDS011;67068;52.116;4.440;2023-04-21T00:24:56;6.13;;;1.90;;
77872;SDS011;67068;52.116;4.440;2023-04-21T00:27:22;6.70;;;2.50;;
77872;SDS011;67068;52.116;4.440;2023-04-21T00:29:47;7.87;;;2.80;;
77872;SDS011;67068;52.116;4.440;2023-04-21T00:32:12;6.73;;;2.47;;
77872;SDS011;67068;52.116;4.440;2023-04-21T00:34:37;7.17;;;2.60;;
77872;SDS011;67068;52.116;4.440;2023-04-21T00:37:03;6.93;;;2.40;;
77872;SDS011;67068;52.116;4.440;2023-04-21T00:39:28;7.60;;;2.20;;
77872;SDS011;67068;52.116;4.440;2023-04-21T00:41:53;6.33;;;2.40;;
77872;SDS011;67068;52.116;4.440;2023-04-21T00:44:18;7.00;;;2.73;;
77872;SDS011;67068;52.116;4.440;2023-04-21T00:46:44;6.03;;;2.40;;
77872;SDS011;67068;52.116;4.440;2023-04-21T00:49:09;6.30;;;2.30;;
77872;SDS011;67068;52.116;4.440;2023-04-21T00:51:35;7.40;;;2.80;;
77872;SDS011;67068;52.116;4.440;2023-04-21T00:54:03;5.82;;;2.35;;
77872;SDS011;67068;52.116;4.440;2023-04-21T00:56:29;7.50;;;2.78;;
77872;SDS011;67068;52.116;4.440;2023-04-21T00:58:56;6.45;;;2.25;;
77872;SDS011;67068;52.116;4.440;2023-04-21T01:01:22;7.32;;;2.65;;
77872;SDS011;67068;52.116;4.440;2023-04-21T01:03:48;7.60;;;2.85;;
77872;SDS011;67068;52.116;4.440;2023-04-21T01:06:14;7.15;;;2.65;;
77872;SDS011;67068;52.116;4.440;2023-04-21T01:08:39;7.05;;;2.67;;
77872;SDS011;67068;52.116;4.440;2023-04-21T01:11:09;7.32;;;2.72;;
77872;SDS011;67068;52.116;4.440;2023-04-21T01:13:35;6.70;;;2.70;;
77872;SDS011;67068;52.116;4.440;2023-04-21T01:16:00;7.97;;;2.85;;
77872;SDS011;67068;52.116;4.440;2023-04-21T01:18:25;8.43;;;2.77;;
77872;SDS011;67068;52.116;4.440;2023-04-21T01:20:51;7.53;;;2.87;;
77872;SDS011;67068;52.116;4.440;2023-04-21T01:23:16;7.57;;;2.70;;
77872;SDS011;67068;52.116;4.440;2023-04-21T01:25:42;7.97;;;2.70;;
77872;SDS011;67068;52.116;4.440;2023-04-21T01:28:08;8.50;;;2.75;;
77872;SDS011;67068;52.116;4.440;2023-04-21T01:30:33;7.10;;;2.40;;
77872;SDS011;67068;52.116;4.440;2023-04-21T01:32:58;6.50;;;2.43;;
77872;SDS011;67068;52.116;4.440;2023-04-21T01:35:24;6.95;;;2.60;;
77872;SDS011;67068;52.116;4.440;2023-04-21T01:37:49;8.07;;;2.87;;
77872;SDS011;67068;52.116;4.440;2023-04-21T01:40:15;8.43;;;3.03;;
77872;SDS011;67068;52.116;4.440;2023-04-21T01:42:40;7.30;;;2.87;;
77872;SDS011;67068;52.116;4.440;2023-04-21T01:45:07;8.93;;;3.40;;
77872;SDS011;67068;52.116;4.440;2023-04-21T01:47:32;7.40;;;2.78;;
77872;SDS011;67068;52.116;4.440;2023-04-21T01:49:57;8.03;;;3.30;;
77872;SDS011;67068;52.116;4.440;2023-04-21T01:52:23;7.87;;;2.73;;
77872;SDS011;67068;52.116;4.440;2023-04-21T01:54:48;7.30;;;2.70;;
77872;SDS011;67068;52.116;4.440;2023-04-21T01:57:14;8.40;;;3.40;;
77872;SDS011;67068;52.116;4.440;2023-04-21T01:59:39;7.70;;;3.00;;
77872;SDS011;67068;52.116;4.440;2023-04-21T02:02:04;7.57;;;2.67;;
77872;SDS011;67068;52.116;4.440;2023-04-21T02:04:29;8.23;;;2.97;;
77872;SDS011;67068;52.116;4.440;2023-04-21T02:06:55;7.70;;;2.80;;
77872;SDS011;67068;52.116;4.440;2023-04-21T02:09:20;8.77;;;3.37;;
77872;SDS011;67068;52.116;4.440;2023-04-21T02:11:45;7.93;;;2.80;;
77872;SDS011;67068;52.116;4.440;2023-04-21T02:14:10;9.33;;;3.07;;
77872;SDS011;67068;52.116;4.440;2023-04-21T02:16:35;7.07;;;2.73;;
77872;SDS011;67068;52.116;4.440;2023-04-21T02:19:01;7.80;;;2.90;;
77872;SDS011;67068;52.116;4.440;2023-04-21T02:21:27;7.95;;;2.92;;
77872;SDS011;67068;52.116;4.440;2023-04-21T02:23:52;7.93;;;3.07;;
77872;SDS011;67068;52.116;4.440;2023-04-21T02:26:17;8.02;;;3.20;;
77872;SDS011;67068;52.116;4.440;2023-04-21T02:28:43;7.78;;;2.97;;
77872;SDS011;67068;52.116;4.440;2023-04-21T02:31:08;8.67;;;3.13;;
77872;SDS011;67068;52.116;4.440;2023-04-21T02:33:34;8.18;;;3.10;;
77872;SDS011;67068;52.116;4.440;2023-04-21T02:35:59;7.30;;;2.70;;
77872;SDS011;67068;52.116;4.440;2023-04-21T02:38:24;7.13;;;2.60;;
77872;SDS011;67068;52.116;4.440;2023-04-21T02:40:49;8.27;;;2.57;;
77872;SDS011;67068;52.116;4.440;2023-04-21T02:43:15;7.30;;;2.88;;
77872;SDS011;67068;52.116;4.440;2023-04-21T02:45:40;9.48;;;3.35;;
77872;SDS011;67068;52.116;4.440;2023-04-21T02:48:05;8.13;;;2.90;;
77872;SDS011;67068;52.116;4.440;2023-04-21T02:50:31;8.43;;;3.00;;
77872;SDS011;67068;52.116;4.440;2023-04-21T02:52:56;8.67;;;3.37;;
77872;SDS011;67068;52.116;4.440;2023-04-21T02:55:21;7.70;;;2.87;;
77872;SDS011;67068;52.116;4.440;2023-04-21T02:57:47;8.45;;;3.45;;
77872;SDS011;67068;52.116;4.440;2023-04-21T03:00:12;7.15;;;2.55;;
77872;SDS011;67068;52.116;4.440;2023-04-21T03:02:38;8.20;;;3.00;;
77872;SDS011;67068;52.116;4.440;2023-04-21T03:05:03;7.20;;;3.00;;
77872;SDS011;67068;52.116;4.440;2023-04-21T03:07:28;8.13;;;3.03;;
77872;SDS011;67068;52.116;4.440;2023-04-21T03:09:54;9.63;;;3.30;;
77872;SDS011;67068;52.116;4.440;2023-04-21T03:12:19;9.87;;;3.37;;
77872;SDS011;67068;52.116;4.440;2023-04-21T03:14:44;7.95;;;3.53;;
77872;SDS011;67068;52.116;4.440;2023-04-21T03:17:10;8.00;;;2.97;;
77872;SDS011;67068;52.116;4.440;2023-04-21T03:19:35;8.60;;;3.00;;
77872;SDS011;67068;52.116;4.440;2023-04-21T03:22:00;8.90;;;3.70;;
77872;SDS011;67068;52.116;4.440;2023-04-21T03:24:25;9.27;;;3.50;;
77872;SDS011;67068;52.116;4.440;2023-04-21T03:26:50;8.20;;;3.30;;
77872;SDS011;67068;52.116;4.440;2023-04-21T03:29:17;7.65;;;2.70;;
77872;SDS011;67068;52.116;4.440;2023-04-21T03:31:42;8.53;;;3.70;;
77872;SDS011;67068;52.116;4.440;2023-04-21T03:34:07;8.20;;;3.10;;
77872;SDS011;67068;52.116;4.440;2023-04-21T03:36:32;8.13;;;3.37;;
77872;SDS011;67068;52.116;4.440;2023-04-21T03:38:57;8.53;;;3.20;;
77872;SDS011;67068;52.116;4.440;2023-04-21T03:41:23;9.03;;;3.57;;
77872;SDS011;67068;52.116;4.440;2023-04-21T03:43:51;9.90;;;3.70;;
77872;SDS011;67068;52.116;4.440;2023-04-21T03:46:17;8.10;;;3.40;;
77872;SDS011;67068;52.116;4.440;2023-04-21T03:48:43;8.27;;;3.08;;
77872;SDS011;67068;52.116;4.440;2023-04-21T03:51:08;8.60;;;3.10;;
77872;SDS011;67068;52.116;4.440;2023-04-21T03:53:33;8.33;;;3.10;;
77872;SDS011;67068;52.116;4.440;2023-04-21T03:55:58;8.30;;;3.30;;
77872;SDS011;67068;52.116;4.440;2023-04-21T03:58:23;9.03;;;3.60;;
77872;SDS011;67068;52.116;4.440;2023-04-21T04:00:49;8.77;;;3.50;;
77872;SDS011;67068;52.116;4.440;2023-04-21T04:03:14;8.20;;;3.47;;
77872;SDS011;67068;52.116;4.440;2023-04-21T04:05:39;8.23;;;3.10;;
77872;SDS011;67068;52.116;4.440;2023-04-21T04:08:04;8.20;;;3.27;;
77872;SDS011;67068;52.116;4.440;2023-04-21T04:10:30;7.50;;;2.97;;
77872;SDS011;67068;52.116;4.440;2023-04-21T04:12:55;8.97;;;3.50;;
77872;SDS011;67068;52.116;4.440;2023-04-21T04:15:20;9.07;;;3.50;;
77872;SDS011;67068;52.116;4.440;2023-04-21T04:17:46;8.40;;;3.30;;
77872;SDS011;67068;52.116;4.440;2023-04-21T04:20:11;8.60;;;3.57;;
77872;SDS011;67068;52.116;4.440;2023-04-21T04:22:36;9.43;;;3.70;;
77872;SDS011;67068;52.116;4.440;2023-04-21T04:25:02;8.70;;;3.40;;
77872;SDS011;67068;52.116;4.440;2023-04-21T04:27:27;8.85;;;3.45;;
77872;SDS011;67068;52.116;4.440;2023-04-21T04:29:53;8.30;;;3.35;;
77872;SDS011;67068;52.116;4.440;2023-04-21T04:32:18;8.73;;;3.40;;
77872;SDS011;67068;52.116;4.440;2023-04-21T04:34:43;9.83;;;3.83;;
77872;SDS011;67068;52.116;4.440;2023-04-21T04:37:09;8.93;;;3.70;;
77872;SDS011;67068;52.116;4.440;2023-04-21T04:39:35;8.90;;;3.65;;
77872;SDS011;67068;52.116;4.440;2023-04-21T04:42:01;9.02;;;3.78;;
77872;SDS011;67068;52.116;4.440;2023-04-21T04:44:27;8.93;;;3.75;;
77872;SDS011;67068;52.116;4.440;2023-04-21T04:46:52;9.10;;;3.63;;
77872;SDS011;67068;52.116;4.440;2023-04-21T04:49:18;8.40;;;3.30;;
77872;SDS011;67068;52.116;4.440;2023-04-21T04:51:43;8.82;;;3.58;;
77872;SDS011;67068;52.116;4.440;2023-04-21T04:54:08;9.10;;;3.73;;
77872;SDS011;67068;52.116;4.440;2023-04-21T04:56:34;8.30;;;3.35;;
77872;SDS011;67068;52.116;4.440;2023-04-21T04:58:59;8.67;;;3.57;;
77872;SDS011;67068;52.116;4.440;2023-04-21T05:01:24;9.77;;;3.90;;
77872;SDS011;67068;52.116;4.440;2023-04-21T05:03:54;9.10;;;3.58;;
77872;SDS011;67068;52.116;4.440;2023-04-21T05:06:19;10.10;;;4.10;;
77872;SDS011;67068;52.116;4.440;2023-04-21T05:08:45;8.67;;;3.30;;
77872;SDS011;67068;52.116;4.440;2023-04-21T05:11:10;8.53;;;3.40;;
77872;SDS011;67068;52.116;4.440;2023-04-21T05:13:35;8.77;;;3.50;;
77872;SDS011;67068;52.116;4.440;2023-04-21T05:16:00;9.17;;;4.60;;
77872;SDS011;67068;52.116;4.440;2023-04-21T05:18:26;9.10;;;3.58;;
77872;SDS011;67068;52.116;4.440;2023-04-21T05:20:51;9.18;;;3.90;;
77872;SDS011;67068;52.116;4.440;2023-04-21T05:23:17;9.20;;;3.73;;
77872;SDS011;67068;52.116;4.440;2023-04-21T05:25:42;8.40;;;3.70;;
77872;SDS011;67068;52.116;4.440;2023-04-21T05:28:08;10.80;;;4.03;;
77872;SDS011;67068;52.116;4.440;2023-04-21T05:30:33;8.37;;;3.53;;
77872;SDS011;67068;52.116;4.440;2023-04-21T05:32:58;9.77;;;4.55;;
77872;SDS011;67068;52.116;4.440;2023-04-21T05:35:24;10.65;;;4.50;;
77872;SDS011;67068;52.116;4.440;2023-04-21T05:37:49;9.00;;;3.97;;
77872;SDS011;67068;52.116;4.440;2023-04-21T05:40:15;8.88;;;3.88;;
77872;SDS011;67068;52.116;4.440;2023-04-21T05:42:40;8.80;;;3.70;;
77872;SDS011;67068;52.116;4.440;2023-04-21T05:45:05;8.83;;;3.47;;
77872;SDS011;67068;52.116;4.440;2023-04-21T05:47:31;8.45;;;3.55;;
77872;SDS011;67068;52.116;4.440;2023-04-21T05:49:56;9.37;;;3.97;;
77872;SDS011;67068;52.116;4.440;2023-04-21T05:52:21;8.90;;;3.90;;
77872;SDS011;67068;52.116;4.440;2023-04-21T05:54:46;9.00;;;3.27;;
77872;SDS011;67068;52.116;4.440;2023-04-21T05:57:12;8.47;;;3.47;;
77872;SDS011;67068;52.116;4.440;2023-04-21T05:59:37;9.60;;;4.15;;
77872;SDS011;67068;52.116;4.440;2023-04-21T06:02:02;8.53;;;3.03;;
77872;SDS011;67068;52.116;4.440;2023-04-21T06:04:28;8.43;;;3.77;;
77872;SDS011;67068;52.116;4.440;2023-04-21T06:06:53;8.97;;;3.27;;
77872;SDS011;67068;52.116;4.440;2023-04-21T06:09:18;8.00;;;3.40;;
77872;SDS011;67068;52.116;4.440;2023-04-21T06:11:43;7.83;;;3.53;;
77872;SDS011;67068;52.116;4.440;2023-04-21T06:14:08;8.90;;;3.70;;
77872;SDS011;67068;52.116;4.440;2023-04-21T06:16:34;8.77;;;3.63;;
77872;SDS011;67068;52.116;4.440;2023-04-21T06:18:59;8.97;;;3.67;;
77872;SDS011;67068;52.116;4.440;2023-04-21T06:21:24;10.10;;;3.90;;
77872;SDS011;67068;52.116;4.440;2023-04-21T06:23:50;11.20;;;3.97;;
77872;SDS011;67068;52.116;4.440;2023-04-21T06:26:15;10.83;;;4.60;;
77872;SDS011;67068;52.116;4.440;2023-04-21T06:28:41;10.10;;;4.30;;
77872;SDS011;67068;52.116;4.440;2023-04-21T06:31:06;10.03;;;4.30;;
77872;SDS011;67068;52.116;4.440;2023-04-21T06:33:31;9.00;;;3.75;;
77872;SDS011;67068;52.116;4.440;2023-04-21T06:35:57;8.18;;;3.40;;
77872;SDS011;67068;52.116;4.440;2023-04-21T06:38:22;8.77;;;4.17;;
77872;SDS011;67068;52.116;4.440;2023-04-21T06:40:47;9.33;;;3.77;;
77872;SDS011;67068;52.116;4.440;2023-04-21T06:43:13;8.93;;;3.77;;
77872;SDS011;67068;52.116;4.440;2023-04-21T06:45:38;8.93;;;4.00;;
77872;SDS011;67068;52.116;4.440;2023-04-21T06:48:03;8.80;;;3.37;;
77872;SDS011;67068;52.116;4.440;2023-04-21T06:50:29;9.20;;;3.85;;
77872;SDS011;67068;52.116;4.440;2023-04-21T06:52:54;8.70;;;3.70;;
77872;SDS011;67068;52.116;4.440;2023-04-21T06:55:19;8.40;;;3.43;;
77872;SDS011;67068;52.116;4.440;2023-04-21T06:57:45;11.32;;;3.80;;
77872;SDS011;67068;52.116;4.440;2023-04-21T07:00:10;8.77;;;4.33;;
77872;SDS011;67068;52.116;4.440;2023-04-21T07:02:36;11.35;;;5.30;;
77872;SDS011;67068;52.116;4.440;2023-04-21T07:05:01;11.48;;;4.45;;
77872;SDS011;67068;52.116;4.440;2023-04-21T07:07:26;12.07;;;4.30;;
77872;SDS011;67068;52.116;4.440;2023-04-21T07:09:52;10.60;;;4.03;;
77872;SDS011;67068;52.116;4.440;2023-04-21T07:12:17;9.73;;;4.23;;
77872;SDS011;67068;52.116;4.440;2023-04-21T07:14:42;10.27;;;4.27;;
77872;SDS011;67068;52.116;4.440;2023-04-21T07:17:07;8.37;;;3.70;;
77872;SDS011;67068;52.116;4.440;2023-04-21T07:19:32;9.10;;;4.10;;
77872;SDS011;67068;52.116;4.440;2023-04-21T07:21:58;9.30;;;3.90;;
77872;SDS011;67068;52.116;4.440;2023-04-21T07:24:23;10.57;;;3.73;;
77872;SDS011;67068;52.116;4.440;2023-04-21T07:26:48;10.20;;;3.80;;
77872;SDS011;67068;52.116;4.440;2023-04-21T07:29:13;11.03;;;4.17;;
77872;SDS011;67068;52.116;4.440;2023-04-21T07:31:39;10.40;;;4.00;;
77872;SDS011;67068;52.116;4.440;2023-04-21T07:34:04;13.27;;;4.40;;
77872;SDS011;67068;52.116;4.440;2023-04-21T07:36:29;9.67;;;4.20;;
77872;SDS011;67068;52.116;4.440;2023-04-21T07:38:55;10.13;;;3.67;;
77872;SDS011;67068;52.116;4.440;2023-04-21T07:41:20;9.27;;;4.00;;
77872;SDS011;67068;52.116;4.440;2023-04-21T07:43:46;11.33;;;4.20;;
77872;SDS011;67068;52.116;4.440;2023-04-21T07:46:11;9.37;;;4.20;;
77872;SDS011;67068;52.116;4.440;2023-04-21T07:48:38;10.07;;;3.85;;
77872;SDS011;67068;52.116;4.440;2023-04-21T07:51:03;10.40;;;4.00;;
77872;SDS011;67068;52.116;4.440;2023-04-21T07:53:28;9.43;;;3.70;;
77872;SDS011;67068;52.116;4.440;2023-04-21T07:55:54;9.73;;;4.30;;
77872;SDS011;67068;52.116;4.440;2023-04-21T07:58:20;10.85;;;4.80;;
77872;SDS011;67068;52.116;4.440;2023-04-21T08:00:45;11.23;;;4.97;;
77872;SDS011;67068;52.116;4.440;2023-04-21T08:03:10;10.80;;;4.20;;
77872;SDS011;67068;52.116;4.440;2023-04-21T08:05:36;10.63;;;4.30;;
77872;SDS011;67068;52.116;4.440;2023-04-21T08:08:01;11.23;;;4.77;;
77872;SDS011;67068;52.116;4.440;2023-04-21T08:10:26;10.03;;;4.30;;
77872;SDS011;67068;52.116;4.440;2023-04-21T08:12:51;10.97;;;4.67;;
77872;SDS011;67068;52.116;4.440;2023-04-21T08:15:17;14.40;;;4.93;;
77872;SDS011;67068;52.116;4.440;2023-04-21T08:17:42;10.07;;;4.47;;
77872;SDS011;67068;52.116;4.440;2023-04-21T08:20:08;11.87;;;4.50;;
77872;SDS011;67068;52.116;4.440;2023-04-21T08:22:33;11.38;;;3.83;;
77872;SDS011;67068;52.116;4.440;2023-04-21T08:25:00;10.32;;;4.75;;
77872;SDS011;67068;52.116;4.440;2023-04-21T08:27:26;12.07;;;4.65;;
77872;SDS011;67068;52.116;4.440;2023-04-21T08:29:51;12.97;;;4.63;;
77872;SDS011;67068;52.116;4.440;2023-04-21T08:32:16;11.03;;;4.37;;
77872;SDS011;67068;52.116;4.440;2023-04-21T08:34:47;11.23;;;4.57;;
77872;SDS011;67068;52.116;4.440;2023-04-21T08:37:13;17.42;;;5.72;;
77872;SDS011;67068;52.116;4.440;2023-04-21T08:39:38;16.43;;;6.77;;
77872;SDS011;67068;52.116;4.440;2023-04-21T08:42:03;16.10;;;6.70;;
77872;SDS011;67068;52.116;4.440;2023-04-21T08:44:28;14.30;;;7.50;;
77872;SDS011;67068;52.116;4.440;2023-04-21T08:46:54;23.07;;;7.03;;
77872;SDS011;67068;52.116;4.440;2023-04-21T08:49:19;17.58;;;7.82;;
77872;SDS011;67068;52.116;4.440;2023-04-21T08:51:45;17.23;;;9.40;;
77872;SDS011;67068;52.116;4.440;2023-04-21T08:54:10;16.02;;;9.27;;
77872;SDS011;67068;52.116;4.440;2023-04-21T08:56:36;18.40;;;10.63;;
77872;SDS011;67068;52.116;4.440;2023-04-21T08:59:01;16.47;;;9.27;;
77872;SDS011;67068;52.116;4.440;2023-04-21T09:01:26;20.70;;;10.03;;
77872;SDS011;67068;52.116;4.440;2023-04-21T09:03:51;21.10;;;11.03;;
77872;SDS011;67068;52.116;4.440;2023-04-21T09:06:17;20.00;;;9.77;;
77872;SDS011;67068;52.116;4.440;2023-04-21T09:08:43;21.00;;;10.45;;
77872;SDS011;67068;52.116;4.440;2023-04-21T09:11:12;21.67;;;11.65;;
77872;SDS011;67068;52.116;4.440;2023-04-21T09:13:38;21.23;;;9.75;;
77872;SDS011;67068;52.116;4.440;2023-04-21T09:16:04;22.43;;;11.93;;
77872;SDS011;67068;52.116;4.440;2023-04-21T09:18:30;21.15;;;10.88;;
77872;SDS011;67068;52.116;4.440;2023-04-21T09:21:09;18.42;;;10.75;;
77872;SDS011;67068;52.116;4.440;2023-04-21T09:23:38;19.63;;;11.07;;
77872;SDS011;67068;52.116;4.440;2023-04-21T09:28:29;21.57;;;10.80;;
77872;SDS011;67068;52.116;4.440;2023-04-21T09:30:55;20.70;;;11.48;;
77872;SDS011;67068;52.116;4.440;2023-04-21T09:33:21;18.23;;;11.00;;
77872;SDS011;67068;52.116;4.440;2023-04-21T09:35:46;19.10;;;11.10;;
77872;SDS011;67068;52.116;4.440;2023-04-21T09:38:12;18.23;;;11.43;;
77872;SDS011;67068;52.116;4.440;2023-04-21T09:40:37;18.67;;;11.50;;
77872;SDS011;67068;52.116;4.440;2023-04-21T09:43:03;21.85;;;12.93;;
77872;SDS011;67068;52.116;4.440;2023-04-21T09:45:28;18.70;;;11.77;;
77872;SDS011;67068;52.116;4.440;2023-04-21T09:47:55;18.83;;;12.63;;
77872;SDS011;67068;52.116;4.440;2023-04-21T09:50:21;21.95;;;12.10;;
77872;SDS011;67068;52.116;4.440;2023-04-21T09:52:46;19.70;;;11.52;;
77872;SDS011;67068;52.116;4.440;2023-04-21T09:55:14;18.27;;;11.77;;
77872;SDS011;67068;52.116;4.440;2023-04-21T09:57:40;22.40;;;11.77;;
77872;SDS011;67068;52.116;4.440;2023-04-21T10:00:07;22.13;;;12.45;;
77872;SDS011;67068;52.116;4.440;2023-04-21T10:02:34;18.90;;;12.48;;
77872;SDS011;67068;52.116;4.440;2023-04-21T10:04:59;23.92;;;12.80;;
77872;SDS011;67068;52.116;4.440;2023-04-21T10:07:25;18.65;;;11.80;;
77872;SDS011;67068;52.116;4.440;2023-04-21T10:09:51;19.73;;;12.25;;
77872;SDS011;67068;52.116;4.440;2023-04-21T10:12:18;20.10;;;13.00;;
77872;SDS011;67068;52.116;4.440;2023-04-21T10:14:44;21.30;;;13.07;;
77872;SDS011;67068;52.116;4.440;2023-04-21T10:17:09;20.23;;;12.90;;
77872;SDS011;67068;52.116;4.440;2023-04-21T10:19:35;19.98;;;12.27;;
77872;SDS011;67068;52.116;4.440;2023-04-21T10:22:07;24.60;;;12.50;;
77872;SDS011;67068;52.116;4.440;2023-04-21T10:24:35;19.05;;;11.88;;
77872;SDS011;67068;52.116;4.440;2023-04-21T10:27:02;16.98;;;11.50;;
77872;SDS011;67068;52.116;4.440;2023-04-21T10:29:28;17.95;;;11.52;;
77872;SDS011;67068;52.116;4.440;2023-04-21T10:31:54;18.55;;;11.05;;
77872;SDS011;67068;52.116;4.440;2023-04-21T10:34:21;19.52;;;11.30;;
77872;SDS011;67068;52.116;4.440;2023-04-21T10:36:48;17.70;;;11.52;;
77872;SDS011;67068;52.116;4.440;2023-04-21T10:39:29;21.42;;;12.15;;
77872;SDS011;67068;52.116;4.440;2023-04-21T10:41:57;18.05;;;11.52;;
77872;SDS011;67068;52.116;4.440;2023-04-21T10:44:51;21.08;;;13.30;;
77872;SDS011;67068;52.116;4.440;2023-04-21T10:50:28;18.73;;;12.38;;
77872;SDS011;67068;52.116;4.440;2023-04-21T10:52:55;18.65;;;10.75;;
77872;SDS011;67068;52.116;4.440;2023-04-21T10:55:21;20.88;;;12.80;;
77872;SDS011;67068;52.116;4.440;2023-04-21T10:57:49;18.58;;;11.20;;
77872;SDS011;67068;52.116;4.440;2023-04-21T11:00:15;18.87;;;11.37;;
77872;SDS011;67068;52.116;4.440;2023-04-21T11:02:41;17.88;;;11.48;;
77872;SDS011;67068;52.116;4.440;2023-04-21T11:05:07;20.13;;;11.50;;
77872;SDS011;67068;52.116;4.440;2023-04-21T11:07:33;16.80;;;10.75;;
77872;SDS011;67068;52.116;4.440;2023-04-21T11:09:58;17.13;;;10.23;;
77872;SDS011;67068;52.116;4.440;2023-04-21T11:12:28;17.17;;;11.07;;
77872;SDS011;67068;52.116;4.440;2023-04-21T11:14:54;16.33;;;10.32;;
77872;SDS011;67068;52.116;4.440;2023-04-21T11:17:19;16.80;;;10.43;;
77872;SDS011;67068;52.116;4.440;2023-04-21T11:19:45;17.13;;;10.63;;
77872;SDS011;67068;52.116;4.440;2023-04-21T11:22:11;16.60;;;10.40;;
77872;SDS011;67068;52.116;4.440;2023-04-21T11:24:36;15.30;;;10.17;;
77872;SDS011;67068;52.116;4.440;2023-04-21T11:27:02;17.37;;;12.27;;
77872;SDS011;67068;52.116;4.440;2023-04-21T11:29:27;16.92;;;10.93;;
77872;SDS011;67068;52.116;4.440;2023-04-21T11:31:53;17.63;;;10.07;;
77872;SDS011;67068;52.116;4.440;2023-04-21T11:34:19;17.37;;;10.70;;
77872;SDS011;67068;52.116;4.440;2023-04-21T11:36:45;13.65;;;9.02;;
77872;SDS011;67068;52.116;4.440;2023-04-21T11:39:11;14.77;;;9.55;;
77872;SDS011;67068;52.116;4.440;2023-04-21T11:41:41;15.05;;;9.63;;
77872;SDS011;67068;52.116;4.440;2023-04-21T11:44:07;14.82;;;9.52;;
77872;SDS011;67068;52.116;4.440;2023-04-21T11:46:33;14.52;;;9.02;;
77872;SDS011;67068;52.116;4.440;2023-04-21T11:51:23;15.50;;;10.00;;
77872;SDS011;67068;52.116;4.440;2023-04-21T11:53:48;15.93;;;9.90;;
77872;SDS011;67068;52.116;4.440;2023-04-21T11:56:17;16.03;;;9.43;;
77872;SDS011;67068;52.116;4.440;2023-04-21T11:58:43;15.60;;;9.48;;
77872;SDS011;67068;52.116;4.440;2023-04-21T12:01:10;15.85;;;10.02;;
77872;SDS011;67068;52.116;4.440;2023-04-21T12:03:37;14.35;;;8.30;;
77872;SDS011;67068;52.116;4.440;2023-04-21T12:06:03;13.05;;;8.60;;
77872;SDS011;67068;52.116;4.440;2023-04-21T12:08:29;12.37;;;7.17;;
77872;SDS011;67068;52.116;4.440;2023-04-21T12:10:54;15.30;;;6.70;;
77872;SDS011;67068;52.116;4.440;2023-04-21T12:13:23;12.67;;;6.40;;
77872;SDS011;67068;52.116;4.440;2023-04-21T12:15:48;11.70;;;6.00;;
77872;SDS011;67068;52.116;4.440;2023-04-21T12:18:13;11.60;;;6.17;;
77872;SDS011;67068;52.116;4.440;2023-04-21T12:20:47;13.30;;;6.55;;
77872;SDS011;67068;52.116;4.440;2023-04-21T12:23:12;14.20;;;6.25;;
77872;SDS011;67068;52.116;4.440;2023-04-21T12:25:37;14.63;;;5.73;;
77872;SDS011;67068;52.116;4.440;2023-04-21T12:28:03;13.87;;;5.87;;
77872;SDS011;67068;52.116;4.440;2023-04-21T12:30:31;12.98;;;6.78;;
77872;SDS011;67068;52.116;4.440;2023-04-21T12:32:57;39.37;;;16.47;;
77872;SDS011;67068;52.116;4.440;2023-04-21T12:35:22;22.83;;;9.90;;
77872;SDS011;67068;52.116;4.440;2023-04-21T12:37:47;20.58;;;8.48;;
77872;SDS011;67068;52.116;4.440;2023-04-21T12:40:13;21.33;;;9.60;;
77872;SDS011;67068;52.116;4.440;2023-04-21T12:42:38;24.55;;;9.40;;
77872;SDS011;67068;52.116;4.440;2023-04-21T12:45:04;23.30;;;9.60;;
77872;SDS011;67068;52.116;4.440;2023-04-21T12:47:29;23.73;;;10.32;;
77872;SDS011;67068;52.116;4.440;2023-04-21T12:49:55;29.80;;;10.68;;
77872;SDS011;67068;52.116;4.440;2023-04-21T12:52:20;23.33;;;9.98;;
77872;SDS011;67068;52.116;4.440;2023-04-21T12:54:45;22.57;;;10.17;;
77872;SDS011;67068;52.116;4.440;2023-04-21T12:57:11;18.87;;;9.43;;
77872;SDS011;67068;52.116;4.440;2023-04-21T12:59:36;20.67;;;9.32;;
77872;SDS011;67068;52.116;4.440;2023-04-21T13:02:01;19.70;;;9.38;;
77872;SDS011;67068;52.116;4.440;2023-04-21T13:04:27;20.47;;;8.57;;
77872;SDS011;67068;52.116;4.440;2023-04-21T13:06:53;19.17;;;9.25;;
77872;SDS011;67068;52.116;4.440;2023-04-21T13:09:18;21.07;;;8.53;;
77872;SDS011;67068;52.116;4.440;2023-04-21T13:11:43;24.27;;;9.63;;
77872;SDS011;67068;52.116;4.440;2023-04-21T13:14:08;19.80;;;8.60;;
77872;SDS011;67068;52.116;4.440;2023-04-21T13:16:34;20.73;;;8.52;;
77872;SDS011;67068;52.116;4.440;2023-04-21T13:18:59;23.13;;;8.80;;
77872;SDS011;67068;52.116;4.440;2023-04-21T13:21:25;20.17;;;8.67;;
77872;SDS011;67068;52.116;4.440;2023-04-21T13:23:50;20.27;;;8.20;;
77872;SDS011;67068;52.116;4.440;2023-04-21T13:26:16;19.53;;;8.20;;
77872;SDS011;67068;52.116;4.440;2023-04-21T13:28:41;17.55;;;8.85;;
77872;SDS011;67068;52.116;4.440;2023-04-21T13:31:06;18.50;;;8.23;;
77872;SDS011;67068;52.116;4.440;2023-04-21T13:33:31;17.13;;;8.20;;
77872;SDS011;67068;52.116;4.440;2023-04-21T13:35:59;17.40;;;7.75;;
77872;SDS011;67068;52.116;4.440;2023-04-21T13:38:25;17.02;;;8.60;;
77872;SDS011;67068;52.116;4.440;2023-04-21T13:40:50;16.00;;;8.63;;
77872;SDS011;67068;52.116;4.440;2023-04-21T13:43:15;16.93;;;9.70;;
77872;SDS011;67068;52.116;4.440;2023-04-21T13:45:40;16.37;;;8.33;;
77872;SDS011;67068;52.116;4.440;2023-04-21T13:48:06;23.13;;;9.30;;
77872;SDS011;67068;52.116;4.440;2023-04-21T13:50:31;21.52;;;11.20;;
77872;SDS011;67068;52.116;4.440;2023-04-21T13:52:56;22.83;;;10.03;;
77872;SDS011;67068;52.116;4.440;2023-04-21T13:55:21;17.83;;;8.27;;
77872;SDS011;67068;52.116;4.440;2023-04-21T13:57:47;15.10;;;7.73;;
77872;SDS011;67068;52.116;4.440;2023-04-21T14:00:12;17.67;;;9.30;;
77872;SDS011;67068;52.116;4.440;2023-04-21T14:02:38;17.42;;;8.43;;
77872;SDS011;67068;52.116;4.440;2023-04-21T14:05:03;16.52;;;7.88;;
77872;SDS011;67068;52.116;4.440;2023-04-21T14:07:29;16.33;;;7.85;;
77872;SDS011;67068;52.116;4.440;2023-04-21T14:09:54;14.98;;;7.72;;
77872;SDS011;67068;52.116;4.440;2023-04-21T14:12:20;16.45;;;7.10;;
77872;SDS011;67068;52.116;4.440;2023-04-21T14:14:45;14.30;;;6.28;;
77872;SDS011;67068;52.116;4.440;2023-04-21T14:17:11;13.32;;;6.95;;
77872;SDS011;67068;52.116;4.440;2023-04-21T14:19:36;17.33;;;7.60;;
77872;SDS011;67068;52.116;4.440;2023-04-21T14:22:01;13.82;;;6.50;;
77872;SDS011;67068;52.116;4.440;2023-04-21T14:24:27;13.13;;;7.20;;
77872;SDS011;67068;52.116;4.440;2023-04-21T14:26:53;12.25;;;6.43;;
77872;SDS011;67068;52.116;4.440;2023-04-21T14:29:18;13.45;;;6.75;;
77872;SDS011;67068;52.116;4.440;2023-04-21T14:31:43;13.17;;;6.50;;
77872;SDS011;67068;52.116;4.440;2023-04-21T14:34:09;12.27;;;6.47;;
77872;SDS011;67068;52.116;4.440;2023-04-21T14:36:37;12.20;;;5.68;;